createdAt,value
2023-11-12T15:39:50.269Z,11.65
2023-11-12T15:42:17.806Z,5.25
2023-11-12T15:44:45.156Z,17.90
2023-11-12T15:47:13.105Z,9.57
2023-11-12T15:49:41.203Z,7.18
2023-11-12T15:52:08.540Z,10.75
2023-11-12T15:54:36.026Z,5.97
2023-11-12T15:57:03.383Z,3.63
2023-11-12T15:59:31.873Z,6.83
2023-11-12T16:01:59.332Z,7.97
2023-11-12T16:04:26.739Z,6.30
2023-11-12T16:06:54.174Z,12.00
2023-11-12T16:09:21.551Z,8.52
2023-11-12T16:11:48.942Z,3.53
2023-11-12T16:14:16.270Z,11.02
2023-11-12T16:16:43.636Z,5.07
2023-11-12T16:19:10.988Z,3.72
2023-11-12T16:21:38.360Z,8.77
2023-11-12T16:24:05.910Z,12.40
2023-11-12T16:26:33.287Z,6.82
2023-11-12T16:29:00.604Z,10.18
2023-11-12T16:31:28.070Z,14.63
2023-11-12T16:33:55.655Z,7.47
2023-11-12T16:36:23.147Z,9.30
2023-11-12T16:38:50.582Z,6.88
2023-11-12T16:41:17.922Z,8.93
2023-11-12T16:43:45.244Z,7.47
2023-11-12T16:46:12.935Z,7.22
2023-11-12T16:48:40.351Z,13.00
2023-11-12T16:51:07.698Z,12.40
2023-11-12T16:53:35.270Z,16.27
2023-11-12T16:56:02.654Z,12.18
2023-11-12T16:58:30.324Z,12.90
2023-11-12T17:00:57.835Z,10.03
2023-11-12T17:03:30.893Z,12.07
2023-11-12T17:05:58.381Z,10.93
2023-11-12T17:08:25.689Z,10.10
2023-11-12T17:10:53.069Z,11.45
2023-11-12T17:13:20.464Z,12.27
2023-11-12T17:15:50.538Z,11.00
2023-11-12T17:18:18.088Z,13.32
2023-11-12T17:20:45.533Z,16.30
2023-11-12T17:23:12.970Z,5.93
2023-11-12T17:25:40.323Z,9.53
2023-11-12T17:28:07.822Z,7.00
2023-11-12T17:30:35.158Z,7.00
2023-11-12T17:33:02.659Z,10.50
2023-11-12T17:35:30.126Z,9.43
2023-11-12T17:37:57.490Z,9.40
2023-11-12T17:40:24.876Z,15.30
2023-11-12T17:42:52.262Z,10.30
2023-11-12T17:45:19.687Z,9.18
2023-11-12T17:47:47.060Z,10.20
2023-11-12T17:50:14.504Z,8.90
2023-11-12T17:52:41.833Z,6.45
2023-11-12T17:55:09.311Z,7.72
2023-11-12T17:57:36.934Z,10.98
2023-11-12T18:00:04.418Z,9.90
2023-11-12T18:02:31.776Z,4.07
2023-11-12T18:04:59.313Z,6.28
2023-11-12T18:07:26.806Z,5.03
2023-11-12T18:09:57.298Z,9.98
2023-11-12T18:12:24.650Z,8.45
2023-11-12T18:14:51.989Z,14.63
2023-11-12T18:17:19.342Z,12.98
2023-11-12T18:19:47.902Z,10.52
2023-11-12T18:22:15.332Z,10.30
2023-11-12T18:24:42.753Z,8.25
2023-11-12T18:27:10.202Z,6.40
2023-11-12T18:29:37.494Z,12.50
2023-11-12T18:32:05.267Z,8.93
2023-11-12T18:34:32.985Z,21.88
2023-11-12T18:37:00.296Z,8.52
2023-11-12T18:39:27.643Z,12.87
2023-11-12T18:41:55.093Z,4.78
2023-11-12T18:44:22.452Z,8.80
2023-11-12T18:46:49.857Z,5.40
2023-11-12T18:49:17.256Z,7.25
2023-11-12T18:51:44.647Z,9.80
2023-11-12T18:54:12.034Z,8.82
2023-11-12T18:56:40.296Z,13.65
2023-11-12T18:59:10.498Z,11.70
2023-11-12T19:01:39.778Z,13.68
2023-11-12T19:04:07.977Z,9.67
2023-11-12T19:06:39.636Z,12.65
2023-11-12T19:09:07.064Z,7.70
2023-11-12T19:11:34.847Z,12.77
2023-11-12T19:14:02.209Z,11.90
2023-11-12T19:16:30.158Z,14.87
2023-11-12T19:18:57.958Z,7.57
2023-11-12T19:21:25.304Z,10.05
2023-11-12T19:23:52.681Z,16.75
2023-11-12T19:26:20.844Z,20.13
2023-11-12T19:28:48.158Z,21.20
2023-11-12T19:31:25.188Z,17.63
2023-11-12T19:33:58.112Z,14.45
2023-11-12T19:36:25.461Z,19.75
2023-11-12T19:38:52.775Z,13.13
2023-11-12T19:41:20.150Z,15.63
2023-11-12T19:43:47.487Z,10.80
2023-11-12T19:46:14.975Z,16.25
2023-11-12T19:48:42.433Z,15.55
2023-11-12T19:51:09.766Z,11.10
2023-11-12T19:53:37.084Z,13.07
2023-11-12T19:56:04.527Z,10.52
2023-11-12T19:58:31.859Z,15.18
2023-11-12T20:01:08.303Z,8.90
2023-11-12T20:03:35.711Z,13.18
2023-11-12T20:06:03.142Z,8.93
2023-11-12T20:08:30.542Z,13.65
2023-11-12T20:10:57.869Z,15.52
2023-11-12T20:13:25.170Z,17.27
2023-11-12T20:15:52.573Z,9.88
2023-11-12T20:18:20.049Z,18.33
2023-11-12T20:20:47.420Z,17.92
2023-11-12T20:23:14.838Z,26.83
2023-11-12T20:25:42.308Z,30.50
2023-11-12T20:28:09.746Z,28.63
2023-11-12T20:30:37.275Z,43.63
2023-11-12T20:33:04.697Z,33.15
2023-11-12T20:35:32.073Z,17.52
2023-11-12T20:38:25.606Z,27.65
2023-11-12T20:40:53.017Z,16.55
2023-11-12T20:43:20.441Z,14.90
2023-11-12T20:45:48.347Z,18.42
2023-11-12T20:48:15.685Z,14.55
2023-11-12T20:50:43.071Z,15.80
2023-11-12T20:53:10.535Z,14.68
2023-11-12T20:55:38.227Z,10.80
2023-11-12T20:58:05.631Z,19.73
2023-11-12T21:00:33.100Z,31.58
2023-11-12T21:03:00.658Z,23.55
2023-11-12T21:05:27.988Z,24.90
2023-11-12T21:07:55.401Z,40.03
2023-11-12T21:10:22.865Z,18.92
2023-11-12T21:12:50.291Z,19.85
2023-11-12T21:15:17.832Z,11.30
2023-11-12T21:17:45.786Z,11.38
2023-11-12T21:20:13.456Z,14.07
2023-11-12T21:22:40.871Z,12.40
2023-11-12T21:25:08.412Z,9.45
2023-11-12T21:27:35.815Z,9.93
2023-11-12T21:30:03.250Z,8.43
2023-11-12T21:32:30.607Z,7.67
2023-11-12T21:34:58.134Z,13.70
2023-11-12T21:37:25.841Z,12.43
2023-11-12T21:39:53.245Z,14.25
2023-11-12T21:42:20.595Z,10.70
2023-11-12T21:44:48.012Z,5.17
2023-11-12T21:47:15.408Z,12.35
2023-11-12T21:49:42.868Z,13.18
2023-11-12T21:52:10.330Z,10.13
2023-11-12T21:54:37.671Z,9.27
2023-11-12T21:57:05.168Z,6.83
2023-11-12T21:59:34.917Z,10.55
2023-11-12T22:02:02.341Z,4.00
2023-11-12T22:04:29.749Z,7.40
2023-11-12T22:06:57.240Z,11.68
2023-11-12T22:09:24.580Z,8.90
2023-11-12T22:11:51.920Z,8.52
2023-11-12T22:14:19.364Z,6.45
2023-11-12T22:16:46.759Z,6.07
2023-11-12T22:19:14.277Z,6.65
2023-11-12T22:21:42.049Z,13.67
2023-11-12T22:24:09.620Z,15.68
2023-11-12T22:26:40.295Z,10.30
2023-11-12T22:29:08.030Z,10.32
2023-11-12T22:31:35.796Z,9.57
2023-11-12T22:34:03.334Z,9.73
2023-11-12T22:36:30.782Z,8.55
2023-11-12T22:38:58.395Z,8.43
2023-11-12T22:41:25.802Z,8.05
2023-11-12T22:43:53.185Z,5.25
2023-11-12T22:46:20.607Z,2.13
2023-11-12T22:48:48.062Z,9.32
2023-11-12T22:51:15.463Z,8.88
2023-11-12T22:53:42.794Z,10.18
2023-11-12T22:56:10.142Z,6.03
2023-11-12T22:58:37.583Z,9.87
2023-11-12T23:01:05.189Z,9.23
2023-11-12T23:03:32.882Z,5.13
2023-11-12T23:06:00.437Z,8.98
2023-11-12T23:08:27.795Z,10.38
2023-11-12T23:10:55.196Z,13.87
2023-11-12T23:13:22.784Z,7.78
2023-11-12T23:15:50.186Z,5.75
2023-11-12T23:18:17.569Z,6.45
2023-11-12T23:20:50.235Z,7.53
2023-11-12T23:23:22.863Z,8.97
2023-11-12T23:25:50.236Z,7.93
2023-11-12T23:28:17.602Z,12.43
2023-11-12T23:30:45.134Z,11.27
2023-11-12T23:33:12.619Z,11.05
2023-11-12T23:35:39.959Z,7.97
2023-11-12T23:38:07.322Z,6.57
2023-11-12T23:40:34.670Z,9.40
2023-11-12T23:43:02.061Z,5.25
2023-11-12T23:45:29.394Z,9.95
2023-11-12T23:47:56.844Z,14.37
2023-11-12T23:50:24.270Z,14.60
2023-11-12T23:52:51.598Z,6.38
2023-11-12T23:55:19.047Z,8.43
2023-11-12T23:57:46.434Z,6.65
